Time;durP1;ratioP1;P1;durP2;ratioP2;P2;SDS_P1;SDS_P2;PMS_P1;PMS_P2;Temp;Humidity;BMP_temperature;BMP_pressure;BME280_temperature;BME280_humidity;BME280_pressure;Samples;Min_cycle;Max_cycle;Signal;HPM_P1;HPM_P2
2022/01/29 00:00:34;;;;;;;2.50;1.47;;;;;;;18.57;48.48;102104.06;5028938;28;20176;-58
2022/01/29 00:03:00;;;;;;;2.60;1.70;;;;;;;18.65;48.76;102100.34;5029471;28;20232;-59
2022/01/29 00:05:25;;;;;;;2.40;1.60;;;;;;;18.62;48.23;102106.75;5029734;28;20250;-58
2022/01/29 00:07:51;;;;;;;2.73;1.43;;;;;;;18.58;48.61;102109.47;5029076;28;20628;-58
2022/01/29 00:10:16;;;;;;;2.80;1.60;;;;;;;18.58;48.16;102100.88;5029083;28;20180;-58
2022/01/29 00:12:42;;;;;;;2.10;1.40;;;;;;;18.60;48.43;102095.66;5029546;28;20306;-58
2022/01/29 00:15:07;;;;;;;2.70;1.80;;;;;;;18.59;48.56;102098.84;5030179;28;20180;-58
2022/01/29 00:17:33;;;;;;;3.10;1.83;;;;;;;18.60;48.50;102092.78;5029737;28;20548;-58
2022/01/29 00:19:59;;;;;;;2.60;1.40;;;;;;;18.61;48.62;102090.78;5028085;28;20168;-57
2022/01/29 00:22:24;;;;;;;2.47;1.37;;;;;;;18.65;48.23;102091.75;5029439;28;20703;-58
2022/01/29 00:24:50;;;;;;;2.00;1.20;;;;;;;18.57;48.72;102093.44;5029842;28;20255;-58
2022/01/29 00:27:15;;;;;;;2.43;1.57;;;;;;;18.57;48.55;102090.59;5029439;28;20207;-58
2022/01/29 00:29:42;;;;;;;2.43;1.50;;;;;;;18.57;48.42;102086.91;5032165;28;20591;-58
2022/01/29 00:32:08;;;;;;;2.67;1.57;;;;;;;18.56;48.49;102080.34;5033210;28;20582;-60
2022/01/29 00:34:34;;;;;;;2.17;1.40;;;;;;;18.53;48.70;102089.59;5033133;28;20476;-58
2022/01/29 00:36:59;;;;;;;2.27;1.40;;;;;;;18.59;48.42;102081.69;5032933;28;20414;-58
2022/01/29 00:39:25;;;;;;;2.37;1.63;;;;;;;18.53;48.82;102083.88;5032612;28;20195;-57
2022/01/29 00:41:50;;;;;;;2.90;2.00;;;;;;;18.59;48.51;102091.09;5032742;28;20153;-59
2022/01/29 00:44:16;;;;;;;2.23;1.37;;;;;;;18.59;48.35;102105.41;5032608;28;20185;-58
2022/01/29 00:46:41;;;;;;;2.57;1.53;;;;;;;18.57;48.67;102107.75;5032425;28;20188;-57
2022/01/29 00:49:10;;;;;;;2.60;1.77;;;;;;;18.53;48.60;102100.19;5032357;28;20710;-58
2022/01/29 00:51:35;;;;;;;2.03;1.03;;;;;;;18.54;48.70;102085.56;5032731;28;20203;-58
2022/01/29 00:54:01;;;;;;;2.83;1.87;;;;;;;18.57;48.56;102087.72;5032867;28;20427;-58
2022/01/29 00:56:26;;;;;;;2.33;1.37;;;;;;;18.49;48.75;102082.03;5031818;28;20202;-58
2022/01/29 00:58:51;;;;;;;2.67;1.90;;;;;;;18.51;48.82;102082.53;5032170;28;20169;-57
2022/01/29 01:01:17;;;;;;;2.50;1.80;;;;;;;18.55;48.45;102081.50;5032701;28;20172;-58
2022/01/29 01:03:42;;;;;;;2.97;1.40;;;;;;;18.50;48.66;102090.28;5031481;28;20231;-58
2022/01/29 01:06:08;;;;;;;2.27;1.53;;;;;;;18.52;48.41;102090.75;5032481;28;20569;-61
2022/01/29 01:08:33;;;;;;;2.97;1.80;;;;;;;18.49;48.56;102105.75;5032075;28;20173;-58
2022/01/29 01:10:59;;;;;;;3.00;1.90;;;;;;;18.53;48.68;102095.31;5031314;28;20211;-58
2022/01/29 01:13:25;;;;;;;2.47;1.53;;;;;;;18.52;48.87;102096.47;5032023;28;20176;-58
2022/01/29 01:15:50;;;;;;;2.57;1.60;;;;;;;18.53;48.43;102101.03;5032393;28;20411;-58
2022/01/29 01:18:15;;;;;;;2.73;1.60;;;;;;;18.52;48.50;102105.06;5031799;28;20187;-58
2022/01/29 01:20:41;;;;;;;2.60;1.57;;;;;;;18.51;48.63;102091.13;5032047;28;20169;-58
2022/01/29 01:23:06;;;;;;;2.10;1.40;;;;;;;18.50;48.73;102098.00;5032078;28;20173;-59
2022/01/29 01:25:32;;;;;;;3.63;1.83;;;;;;;18.50;48.93;102095.13;5031568;28;20196;-59
2022/01/29 01:27:57;;;;;;;3.60;1.90;;;;;;;18.49;48.55;102079.16;5031620;28;20164;-59
2022/01/29 01:30:23;;;;;;;2.50;1.50;;;;;;;18.50;48.73;102078.81;5031629;28;20239;-58
2022/01/29 01:32:48;;;;;;;2.53;1.73;;;;;;;18.49;48.75;102080.00;5031655;28;20188;-58
2022/01/29 01:35:21;;;;;;;4.07;2.30;;;;;;;18.51;48.79;102069.06;5031136;28;20279;-58
2022/01/29 01:37:57;;;;;;;2.93;1.80;;;;;;;18.50;48.82;102069.41;5031358;28;20173;-58
2022/01/29 01:40:25;;;;;;;2.60;1.93;;;;;;;18.46;48.87;102057.78;5030517;28;20415;-58
2022/01/29 01:42:53;;;;;;;2.40;1.60;;;;;;;18.45;48.50;102058.13;5031903;28;20889;-58
2022/01/29 01:45:18;;;;;;;2.67;1.77;;;;;;;18.47;48.79;102052.94;5031423;28;20520;-58
2022/01/29 01:47:43;;;;;;;3.33;2.07;;;;;;;18.51;48.35;102060.47;5031656;28;20399;-58
2022/01/29 01:50:10;;;;;;;2.67;1.67;;;;;;;18.48;48.85;102058.31;5031388;28;20200;-58
2022/01/29 01:52:37;;;;;;;2.80;1.77;;;;;;;18.46;48.99;102062.69;5031764;28;20262;-58
2022/01/29 01:55:02;;;;;;;2.70;1.87;;;;;;;18.51;48.81;102063.34;5030580;28;20416;-58
2022/01/29 01:57:28;;;;;;;3.13;1.60;;;;;;;18.50;48.50;102060.81;5031975;28;20430;-58
2022/01/29 01:59:54;;;;;;;2.50;1.60;;;;;;;18.51;48.55;102056.81;5030828;28;20640;-58
2022/01/29 02:02:21;;;;;;;2.57;1.60;;;;;;;18.45;48.98;102052.41;5030671;28;20691;-58
2022/01/29 02:04:46;;;;;;;2.37;1.50;;;;;;;18.47;48.63;102056.59;5030408;28;20203;-58
2022/01/29 02:07:12;;;;;;;2.70;1.60;;;;;;;18.46;48.45;102045.53;5031718;28;20443;-58
2022/01/29 02:09:39;;;;;;;2.93;2.03;;;;;;;18.43;48.68;102037.63;5030887;28;20165;-58
2022/01/29 02:12:04;;;;;;;2.30;1.50;;;;;;;18.46;48.68;102032.06;5030756;28;20176;-58
2022/01/29 02:14:32;;;;;;;2.67;1.70;;;;;;;18.44;48.81;102020.13;5030663;28;20497;-58
2022/01/29 02:16:59;;;;;;;2.30;1.37;;;;;;;18.48;48.49;102014.56;5031368;28;20259;-58
2022/01/29 02:19:25;;;;;;;1.93;1.07;;;;;;;18.48;48.77;102003.97;5030210;28;20863;-59
2022/01/29 02:21:50;;;;;;;3.40;1.90;;;;;;;18.45;48.92;102009.50;5030459;28;20502;-58
2022/01/29 02:24:15;;;;;;;3.07;2.00;;;;;;;18.43;48.75;102006.16;5030546;28;20183;-58
2022/01/29 02:26:41;;;;;;;2.20;1.47;;;;;;;18.45;48.99;102012.38;5031206;28;20528;-58
2022/01/29 02:29:06;;;;;;;2.73;1.80;;;;;;;18.47;48.64;102010.03;5030324;28;20632;-58
2022/01/29 02:31:32;;;;;;;2.60;1.70;;;;;;;18.45;48.64;102018.94;5030534;28;20207;-58
2022/01/29 02:33:57;;;;;;;3.20;2.07;;;;;;;18.43;48.64;102015.59;5030493;28;20188;-58
2022/01/29 02:36:23;;;;;;;2.23;1.47;;;;;;;18.44;48.81;102010.69;5030430;28;20188;-58
2022/01/29 02:38:48;;;;;;;2.57;1.53;;;;;;;18.43;48.42;101995.56;5030830;28;20176;-57
2022/01/29 02:41:14;;;;;;;2.43;1.80;;;;;;;18.44;48.65;102000.09;5030620;28;20175;-58
2022/01/29 02:43:47;;;;;;;2.40;1.57;;;;;;;18.42;49.01;101995.91;5030457;28;20181;-58
2022/01/29 02:46:30;;;;;;;2.63;1.80;;;;;;;18.46;48.72;101997.75;5030906;28;20180;-58
2022/01/29 02:48:59;;;;;;;2.70;1.80;;;;;;;18.40;49.07;101999.09;5025453;28;20420;-58
2022/01/29 02:51:24;;;;;;;3.03;1.93;;;;;;;18.40;48.84;101993.38;5026084;28;20528;-58
2022/01/29 02:53:50;;;;;;;1.97;1.30;;;;;;;18.41;48.77;102000.78;5029841;28;20922;-58
2022/01/29 02:56:15;;;;;;;2.87;1.60;;;;;;;18.47;48.42;101990.00;5029289;28;20176;-58
2022/01/29 02:58:40;;;;;;;2.80;1.80;;;;;;;18.42;48.92;101985.28;5030614;28;20624;-58
2022/01/29 03:01:06;;;;;;;2.97;1.70;;;;;;;18.38;48.85;101972.88;5029777;28;20703;-58
2022/01/29 03:03:32;;;;;;;3.07;1.97;;;;;;;18.40;49.13;101969.66;5030176;28;20232;-58
2022/01/29 03:05:57;;;;;;;2.47;1.70;;;;;;;18.42;48.83;101955.88;5029927;28;20227;-58
2022/01/29 03:08:23;;;;;;;2.97;1.63;;;;;;;18.44;48.72;101965.78;5030242;28;20184;-58
2022/01/29 03:10:48;;;;;;;3.20;1.93;;;;;;;18.40;48.89;101966.78;5028907;28;20204;-58
2022/01/29 03:13:14;;;;;;;2.83;1.67;;;;;;;18.40;48.79;101966.78;5029859;28;20180;-58
2022/01/29 03:15:40;;;;;;;2.60;1.80;;;;;;;18.40;48.85;101972.50;5030555;28;20219;-58
2022/01/29 03:18:05;;;;;;;2.97;2.03;;;;;;;18.41;48.89;101969.31;5029491;28;20426;-58
2022/01/29 03:20:30;;;;;;;2.80;1.80;;;;;;;18.41;48.41;101975.03;5029315;28;20180;-58
2022/01/29 03:22:57;;;;;;;2.63;1.70;;;;;;;18.43;48.87;101972.69;5029601;28;20172;-58
2022/01/29 03:25:22;;;;;;;2.90;1.80;;;;;;;18.42;48.51;101973.03;5029639;28;20187;-58
2022/01/29 03:27:48;;;;;;;2.37;1.60;;;;;;;18.40;48.92;101967.66;5029378;28;20785;-58
2022/01/29 03:30:13;;;;;;;3.13;2.00;;;;;;;18.40;48.94;101973.38;5029516;28;20486;-58
2022/01/29 03:32:38;;;;;;;3.20;1.80;;;;;;;18.40;48.54;101973.38;5029941;28;20539;-58
2022/01/29 03:35:04;;;;;;;3.03;1.67;;;;;;;18.38;48.71;101972.88;5029447;28;20541;-58
2022/01/29 03:37:30;;;;;;;3.17;2.00;;;;;;;18.41;48.70;101971.34;5030104;28;20196;-58
2022/01/29 03:40:02;;;;;;;2.50;1.70;;;;;;;18.42;48.58;101976.72;5029466;28;20177;-58
2022/01/29 03:42:30;;;;;;;2.50;1.80;;;;;;;18.41;48.62;101972.19;5029741;28;20172;-58
2022/01/29 03:44:57;;;;;;;2.30;1.60;;;;;;;18.39;48.81;101968.84;5029056;28;20411;-58
2022/01/29 03:47:22;;;;;;;3.10;1.83;;;;;;;18.42;48.78;101968.13;5028995;28;20501;-58
2022/01/29 03:49:48;;;;;;;3.30;1.80;;;;;;;18.39;49.10;101965.97;5029614;28;20407;-58
2022/01/29 03:52:13;;;;;;;2.70;1.77;;;;;;;18.36;48.97;101969.50;5029721;28;20230;-61
2022/01/29 03:54:38;;;;;;;2.83;1.70;;;;;;;18.45;48.44;101958.88;5029828;28;20181;-58
2022/01/29 03:57:04;;;;;;;2.23;1.50;;;;;;;18.41;48.51;101966.47;5029383;28;20459;-58
2022/01/29 03:59:29;;;;;;;3.53;2.00;;;;;;;18.39;48.62;101968.84;5029567;28;20238;-58
2022/01/29 04:01:55;;;;;;;2.60;1.90;;;;;;;18.47;48.70;101970.00;5029718;28;20223;-58
2022/01/29 04:04:20;;;;;;;4.10;1.87;;;;;;;18.39;48.88;101967.97;5032000;28;20188;-57
2022/01/29 04:06:46;;;;;;;2.53;1.73;;;;;;;18.43;48.86;101969.84;5033035;28;20196;-58
2022/01/29 04:09:12;;;;;;;2.73;2.00;;;;;;;18.39;49.00;101967.97;5032337;28;20255;-58
2022/01/29 04:11:38;;;;;;;2.80;1.90;;;;;;;18.39;48.39;101953.69;5033722;28;20200;-58
2022/01/29 04:14:31;;;;;;;3.00;1.80;;;;;;;18.35;49.25;101952.69;5033350;28;20202;-58
2022/01/29 04:16:55;;;;;;;2.80;2.03;;;;;;;18.38;48.87;101952.88;5032832;28;20485;-58
2022/01/29 04:19:20;;;;;;;2.40;1.60;;;;;;;18.34;48.75;101946.13;5032956;28;20886;-58
2022/01/29 04:21:46;;;;;;;2.30;1.50;;;;;;;18.36;49.00;101943.75;5033397;28;20172;-58
2022/01/29 04:24:11;;;;;;;3.00;2.00;;;;;;;18.39;49.16;101934.53;5033042;28;20239;-58
2022/01/29 04:26:37;;;;;;;2.40;1.70;;;;;;;18.38;48.71;101932.84;5033230;28;20242;-58
2022/01/29 04:29:06;;;;;;;2.97;1.43;;;;;;;18.47;48.38;101925.06;5032508;28;20181;-58
2022/01/29 04:31:44;;;;;;;3.10;1.80;;;;;;;18.42;49.04;101921.56;5031936;28;20208;-58
2022/01/29 04:34:09;;;;;;;3.17;2.10;;;;;;;18.45;48.69;101916.00;5033119;28;20443;-58
2022/01/29 04:36:35;;;;;;;3.90;2.00;;;;;;;18.43;48.75;101914.66;5031602;28;20931;-58
2022/01/29 04:39:00;;;;;;;2.83;1.83;;;;;;;18.43;48.76;101917.50;5031533;28;20183;-59
2022/01/29 04:41:26;;;;;;;3.00;2.13;;;;;;;18.42;48.71;101913.81;5033140;28;20176;-58
2022/01/29 04:43:51;;;;;;;2.47;1.70;;;;;;;18.43;48.58;101912.66;5032876;28;20696;-58
2022/01/29 04:46:17;;;;;;;2.97;1.97;;;;;;;18.43;48.58;101914.66;5031969;28;20188;-58
2022/01/29 04:48:42;;;;;;;2.57;1.63;;;;;;;18.45;48.36;101910.28;5033100;28;20196;-58
2022/01/29 04:51:07;;;;;;;2.63;1.50;;;;;;;18.42;48.71;101916.66;5032398;28;20197;-58
2022/01/29 04:53:33;;;;;;;2.87;2.10;;;;;;;18.41;48.36;101926.44;5032820;28;20199;-58
2022/01/29 04:55:58;;;;;;;2.83;1.90;;;;;;;18.39;48.85;101923.09;5032610;28;20188;-58
2022/01/29 04:58:24;;;;;;;2.30;1.60;;;;;;;18.40;48.61;101919.03;5032204;28;20203;-58
2022/01/29 05:00:50;;;;;;;3.03;2.10;;;;;;;18.39;48.57;101937.38;5030442;28;20213;-58
2022/01/29 05:03:16;;;;;;;2.67;1.70;;;;;;;18.38;48.85;101938.56;5032305;28;20238;-58
2022/01/29 05:05:42;;;;;;;2.90;1.80;;;;;;;18.41;48.58;101945.63;5032239;28;20660;-58
2022/01/29 05:08:07;;;;;;;2.80;1.90;;;;;;;18.37;48.75;101942.59;5032016;28;20168;-58
2022/01/29 05:10:33;;;;;;;2.50;1.60;;;;;;;18.40;48.32;101935.34;5031190;28;20459;-58
2022/01/29 05:28:48;;;;;;;3.57;2.00;;;;;;;18.43;48.92;101969.84;5031597;28;20431;-58
2022/01/29 05:31:14;;;;;;;3.17;2.07;;;;;;;18.39;48.65;101965.13;5031757;28;20459;-58
2022/01/29 05:33:39;;;;;;;2.87;1.97;;;;;;;18.45;48.67;101972.34;5031647;28;20180;-58
2022/01/29 05:36:05;;;;;;;2.53;1.80;;;;;;;18.40;48.36;101959.06;5031873;28;20176;-58
2022/01/29 05:38:30;;;;;;;3.27;2.00;;;;;;;18.41;48.81;101934.19;5031822;28;20207;-58
2022/01/29 05:40:56;;;;;;;3.40;1.90;;;;;;;18.41;48.52;101932.16;5031632;28;20172;-58
2022/01/29 05:43:21;;;;;;;2.97;1.83;;;;;;;18.39;48.91;101937.38;5031474;28;20527;-58
2022/01/29 05:45:47;;;;;;;2.93;1.90;;;;;;;18.43;48.44;101946.13;5031418;28;20176;-58
2022/01/29 05:48:12;;;;;;;3.60;2.37;;;;;;;18.45;48.63;101947.44;5031484;28;20316;-58
2022/01/29 05:50:38;;;;;;;3.47;2.20;;;;;;;18.39;48.83;101945.97;5031475;28;20197;-58
2022/01/29 05:53:03;;;;;;;3.17;2.13;;;;;;;18.39;48.65;101954.53;5030224;28;20199;-58
2022/01/29 05:55:28;;;;;;;3.77;2.00;;;;;;;18.48;48.30;101948.78;5031421;28;20188;-59
2022/01/29 05:57:54;;;;;;;3.50;2.10;;;;;;;18.41;48.43;101943.59;5031269;28;20557;-58
2022/01/29 06:00:19;;;;;;;2.90;1.60;;;;;;;18.41;48.92;101943.59;5031120;28;20632;-58
2022/01/29 06:02:45;;;;;;;3.33;2.00;;;;;;;18.45;48.80;101927.44;5031117;28;20607;-58
2022/01/29 06:05:10;;;;;;;2.50;1.80;;;;;;;18.47;48.47;101936.50;5031769;28;20196;-58
2022/01/29 06:07:35;;;;;;;3.20;2.00;;;;;;;18.43;48.68;101924.09;5031342;28;20637;-58
2022/01/29 06:10:01;;;;;;;2.87;1.90;;;;;;;18.47;48.52;101909.94;5030597;28;20180;-58
2022/01/29 06:12:26;;;;;;;3.10;2.00;;;;;;;18.46;48.39;101905.41;5030320;28;20184;-58
2022/01/29 06:14:52;;;;;;;2.80;2.00;;;;;;;18.45;48.49;101913.13;5031089;28;20694;-58
2022/01/29 06:17:17;;;;;;;2.83;1.77;;;;;;;18.44;48.76;101914.31;5031310;28;20176;-57
2022/01/29 06:19:43;;;;;;;3.67;2.00;;;;;;;18.44;48.97;101917.19;5030695;28;20261;-58
2022/01/29 06:22:12;;;;;;;2.50;1.80;;;;;;;18.43;48.38;101906.94;5031376;28;20227;-58
2022/01/29 06:24:37;;;;;;;3.07;1.80;;;;;;;18.43;48.42;101912.66;5031306;28;20198;-58
2022/01/29 06:27:03;;;;;;;3.40;2.10;;;;;;;18.48;48.21;101920.19;5030267;28;20424;-58
2022/01/29 06:29:28;;;;;;;2.90;1.97;;;;;;;18.44;48.58;101931.47;5029649;28;20208;-59
2022/01/29 06:31:54;;;;;;;2.87;1.90;;;;;;;18.47;48.46;101929.97;5030665;28;20235;-58
2022/01/29 06:34:19;;;;;;;3.23;2.13;;;;;;;18.44;48.42;101922.91;5030912;28;20188;-58
2022/01/29 06:36:44;;;;;;;2.80;1.80;;;;;;;18.44;48.28;101920.03;5030721;28;20184;-59
2022/01/29 06:39:10;;;;;;;3.40;2.17;;;;;;;18.49;48.32;101927.59;5030422;28;20181;-58
2022/01/29 06:41:35;;;;;;;3.40;2.10;;;;;;;18.44;48.68;101913.47;5030299;28;20536;-58
2022/01/29 06:44:01;;;;;;;3.50;2.43;;;;;;;18.46;48.56;101911.94;5030381;28;20175;-58
2022/01/29 06:46:27;;;;;;;3.33;2.00;;;;;;;18.46;48.45;101917.66;5030595;28;20180;-58
2022/01/29 06:48:53;;;;;;;2.60;1.90;;;;;;;18.44;48.57;101910.59;5029819;28;20180;-58
2022/01/29 06:51:18;;;;;;;3.10;2.10;;;;;;;18.45;48.53;101901.69;5029739;28;20554;-58
2022/01/29 06:53:43;;;;;;;2.77;2.07;;;;;;;18.39;48.75;101903.06;5029910;28;20180;-58
2022/01/29 06:56:09;;;;;;;2.70;2.03;;;;;;;18.48;48.31;101901.03;5030702;28;20183;-58
2022/01/29 06:58:35;;;;;;;2.83;2.07;;;;;;;18.50;48.23;101892.94;5029985;28;20161;-58
2022/01/29 07:01:01;;;;;;;3.80;2.67;;;;;;;18.50;48.44;101909.22;5029430;28;20251;-58
2022/01/29 07:03:26;;;;;;;2.60;1.87;;;;;;;18.44;48.75;101902.03;5029607;28;20467;-58
2022/01/29 07:05:52;;;;;;;3.20;2.33;;;;;;;18.51;48.43;101908.06;5029803;28;20208;-58
2022/01/29 07:08:17;;;;;;;3.43;2.20;;;;;;;18.44;48.36;101902.03;5029549;28;20184;-58
2022/01/29 07:10:44;;;;;;;2.83;1.90;;;;;;;18.47;48.36;101904.22;5029925;28;20207;-58
2022/01/29 07:13:10;;;;;;;3.30;2.27;;;;;;;18.46;48.39;101906.22;5029656;28;20640;-58
2022/01/29 07:15:35;;;;;;;3.00;2.10;;;;;;;18.46;48.27;101917.66;5030202;28;20422;-58
2022/01/29 07:18:01;;;;;;;3.60;2.53;;;;;;;18.48;48.55;101926.75;5029345;28;20168;-58
2022/01/29 07:20:26;;;;;;;3.20;2.10;;;;;;;18.46;48.48;101926.25;5029035;28;20183;-58
2022/01/29 07:22:51;;;;;;;4.20;2.30;;;;;;;18.45;48.24;101921.72;5028683;28;20172;-58
2022/01/29 07:25:17;;;;;;;3.43;2.20;;;;;;;18.47;48.19;101925.06;5030266;28;20227;-59
2022/01/29 07:27:42;;;;;;;2.90;2.00;;;;;;;18.52;48.19;101895.44;5029978;28;20164;-58
2022/01/29 07:30:08;;;;;;;3.30;2.17;;;;;;;18.50;48.26;101900.66;5029329;28;20172;-58
2022/01/29 07:32:34;;;;;;;2.90;2.27;;;;;;;18.47;48.36;101889.91;5028996;28;20191;-58
2022/01/29 07:34:59;;;;;;;3.70;2.27;;;;;;;18.50;48.21;101883.50;5029963;28;20932;-58
2022/01/29 07:37:25;;;;;;;2.90;2.20;;;;;;;18.47;48.42;101881.34;5029954;28;20184;-57
2022/01/29 07:39:50;;;;;;;3.30;1.90;;;;;;;18.45;48.20;101875.97;5032708;28;20226;-57
2022/01/29 07:42:15;;;;;;;3.37;2.40;;;;;;;18.49;48.63;101884.69;5033797;28;20182;-58
2022/01/29 07:44:41;;;;;;;3.70;2.27;;;;;;;18.55;47.98;101889.88;5033827;28;20185;-58
2022/01/29 07:47:07;;;;;;;3.10;2.07;;;;;;;18.48;48.33;101891.59;5033993;28;20176;-58
2022/01/29 07:49:32;;;;;;;3.43;1.83;;;;;;;18.48;48.31;101875.28;5033656;28;20541;-58
2022/01/29 07:51:57;;;;;;;3.23;2.10;;;;;;;18.50;48.14;101890.06;5033659;28;20200;-58
2022/01/29 07:54:23;;;;;;;3.40;2.27;;;;;;;18.47;48.49;101870.72;5033533;28;20172;-58
2022/01/29 07:56:48;;;;;;;2.80;1.90;;;;;;;18.53;48.04;101877.97;5033822;28;20187;-58
2022/01/29 07:59:14;;;;;;;2.87;2.00;;;;;;;18.53;48.39;101877.97;5033397;28;20177;-59
2022/01/29 08:01:39;;;;;;;3.43;2.03;;;;;;;18.52;48.14;101879.13;5033664;28;20246;-58
2022/01/29 08:04:04;;;;;;;3.20;1.80;;;;;;;18.49;48.46;101874.09;5033280;28;20191;-58
2022/01/29 08:06:30;;;;;;;3.13;1.93;;;;;;;18.54;47.94;101873.06;5033454;28;20219;-58
2022/01/29 08:08:56;;;;;;;4.50;1.80;;;;;;;18.54;47.98;101871.03;5033406;28;20204;-58
2022/01/29 08:11:22;;;;;;;2.77;1.77;;;;;;;18.50;48.38;101861.47;5033197;28;20235;-58
2022/01/29 08:13:47;;;;;;;3.70;2.10;;;;;;;18.49;48.31;101862.66;5032998;28;20419;-58
2022/01/29 08:16:14;;;;;;;2.70;1.67;;;;;;;18.50;48.52;101870.03;5032977;28;20176;-57
2022/01/29 08:18:41;;;;;;;3.17;2.27;;;;;;;18.52;48.02;101870.53;5033696;28;20184;-58
2022/01/29 08:21:06;;;;;;;3.57;2.67;;;;;;;18.53;48.11;101875.09;5033299;28;20814;-58
2022/01/29 08:23:32;;;;;;;3.03;2.13;;;;;;;18.53;48.30;101871.38;5032837;28;20427;-58
2022/01/29 08:25:57;;;;;;;2.70;1.80;;;;;;;18.54;48.00;101862.47;5033560;28;20187;-58
2022/01/29 08:28:23;;;;;;;2.80;1.97;;;;;;;18.54;48.13;101862.47;5032848;28;20180;-58
2022/01/29 08:30:49;;;;;;;4.33;2.83;;;;;;;18.51;48.33;101871.72;5033168;28;20270;-58
2022/01/29 08:33:17;;;;;;;3.80;2.20;;;;;;;18.51;48.38;101883.16;5033022;28;20431;-58
2022/01/29 08:35:44;;;;;;;2.53;2.10;;;;;;;18.52;48.23;101876.25;5032663;28;20196;-58
2022/01/29 08:38:10;;;;;;;3.40;2.10;;;;;;;18.55;47.73;101869.84;5032687;28;20442;-58
2022/01/29 08:40:35;;;;;;;2.63;1.87;;;;;;;18.51;48.08;101866.00;5032538;28;20407;-58
2022/01/29 08:43:00;;;;;;;6.20;2.57;;;;;;;18.47;48.62;101862.13;5032772;28;20556;-58
2022/01/29 08:45:26;;;;;;;5.07;2.17;;;;;;;18.52;48.27;101864.00;5032271;28;20172;-58
2022/01/29 08:47:51;;;;;;;3.23;2.20;;;;;;;18.52;48.66;101864.81;5032328;28;20675;-58
2022/01/29 08:50:17;;;;;;;3.37;2.40;;;;;;;18.52;48.08;101859.09;5031177;28;20223;-58
2022/01/29 08:52:42;;;;;;;4.00;2.30;;;;;;;18.47;48.50;101862.13;5032690;28;20203;-58
2022/01/29 08:55:09;;;;;;;3.40;2.43;;;;;;;18.48;48.59;101868.72;5032368;28;20180;-58
2022/01/29 08:57:34;;;;;;;2.90;2.30;;;;;;;18.49;48.05;101854.06;5032885;28;20267;-57
2022/01/29 09:00:00;;;;;;;2.47;1.80;;;;;;;18.53;48.27;101862.81;5032071;28;20446;-58
2022/01/29 09:02:26;;;;;;;3.93;2.40;;;;;;;18.47;48.58;101856.41;5032450;28;20224;-57
2022/01/29 09:04:53;;;;;;;3.37;2.13;;;;;;;18.50;48.29;101850.03;5032311;28;20427;-58
2022/01/29 09:07:19;;;;;;;4.40;2.40;;;;;;;18.49;48.14;101848.34;5031968;28;20199;-58
2022/01/29 09:09:45;;;;;;;3.73;2.73;;;;;;;18.52;48.21;101843.97;5031781;28;20879;-59
2022/01/29 09:12:11;;;;;;;3.47;2.20;;;;;;;18.54;47.99;101845.31;5032340;28;20606;-58
2022/01/29 09:14:37;;;;;;;3.23;2.20;;;;;;;18.53;48.23;101840.78;5032332;28;20419;-58
2022/01/29 09:17:03;;;;;;;3.27;2.07;;;;;;;18.53;48.04;101832.19;5031229;28;20837;-58
2022/01/29 09:19:28;;;;;;;11.90;2.30;;;;;;;18.50;48.20;101841.44;5032077;28;20195;-58
2022/01/29 09:21:53;;;;;;;3.70;2.40;;;;;;;18.50;48.49;101844.31;5032054;28;20219;-58
2022/01/29 09:24:19;;;;;;;4.07;2.33;;;;;;;18.51;47.80;101837.41;5030639;28;20189;-61
2022/01/29 09:26:44;;;;;;;4.37;3.10;;;;;;;18.53;47.74;101852.22;5032195;28;20192;-57
2022/01/29 09:29:10;;;;;;;3.63;2.67;;;;;;;18.47;48.95;101847.84;5031716;28;20199;-60
2022/01/29 09:31:35;;;;;;;3.77;2.67;;;;;;;18.49;48.67;101845.50;5030742;28;20233;-58
2022/01/29 09:34:01;;;;;;;3.30;2.47;;;;;;;18.49;49.13;101831.19;5031925;28;20223;-59
2022/01/29 09:36:26;;;;;;;4.90;3.00;;;;;;;18.52;48.55;101824.78;5032087;28;20188;-58
2022/01/29 09:38:52;;;;;;;4.90;2.80;;;;;;;18.58;48.18;101826.28;5031235;28;20228;-58
2022/01/29 09:41:20;;;;;;;3.53;2.47;;;;;;;18.59;48.25;101830.81;5031346;28;20176;-58
2022/01/29 09:43:46;;;;;;;4.03;2.70;;;;;;;18.56;48.75;101839.25;5014179;28;20255;-60
2022/01/29 09:46:13;;;;;;;3.90;2.63;;;;;;;18.53;48.41;101826.47;5031609;28;20903;-58
2022/01/29 09:48:38;;;;;;;4.30;3.00;;;;;;;18.55;48.29;101829.81;5030740;28;20439;-58
2022/01/29 09:51:05;;;;;;;3.50;2.43;;;;;;;18.57;48.29;101836.00;5030089;28;20962;-58
2022/01/29 09:53:30;;;;;;;3.47;2.27;;;;;;;18.52;48.31;101833.34;5030619;28;20172;-58
2022/01/29 09:55:56;;;;;;;4.27;2.83;;;;;;;18.58;48.22;101840.59;5030363;28;20504;-58
2022/01/29 09:58:21;;;;;;;3.30;2.30;;;;;;;18.52;48.74;101835.38;5031559;28;20172;-58
2022/01/29 10:00:47;;;;;;;3.97;2.80;;;;;;;18.57;48.34;101840.91;5030618;28;20172;-59
2022/01/29 10:03:14;;;;;;;3.17;2.10;;;;;;;18.54;48.44;101842.44;5030748;28;20258;-58
2022/01/29 10:05:44;;;;;;;4.33;2.37;;;;;;;18.54;48.41;101847.31;5031273;28;20200;-58
2022/01/29 10:08:10;;;;;;;3.40;2.20;;;;;;;18.55;48.36;101849.84;5030490;28;20418;-58
2022/01/29 10:10:42;;;;;;;4.57;2.70;;;;;;;18.63;48.05;101853.84;5030432;28;20981;-58
2022/01/29 10:13:33;;;;;;;4.37;2.77;;;;;;;18.58;48.23;101854.88;5030867;28;20187;-58
2022/01/29 10:16:12;;;;;;;3.53;2.27;;;;;;;18.57;48.35;101841.75;5030715;28;20459;-58
2022/01/29 10:18:42;;;;;;;4.00;2.83;;;;;;;18.55;48.44;101846.97;5031653;28;20423;-58
2022/01/29 10:21:20;;;;;;;2.70;2.13;;;;;;;18.59;48.31;101849.97;5031040;28;20569;-58
2022/01/29 10:23:45;;;;;;;3.80;2.70;;;;;;;18.58;48.23;101846.31;5029501;28;20422;-58
2022/01/29 10:26:25;;;;;;;3.57;2.50;;;;;;;18.60;48.49;101841.06;5031099;28;20751;-58
2022/01/29 10:28:52;;;;;;;3.37;2.27;;;;;;;18.55;48.42;101828.97;5030439;28;20620;-58
2022/01/29 10:31:18;;;;;;;3.47;2.27;;;;;;;18.54;48.47;101833.88;5030665;28;20468;-58
2022/01/29 10:33:43;;;;;;;3.23;2.33;;;;;;;18.56;48.27;101831.50;5030647;28;20914;-58
2022/01/29 10:36:10;;;;;;;2.60;1.87;;;;;;;18.57;48.33;101824.56;5030862;28;20184;-58
2022/01/29 10:38:41;;;;;;;4.03;2.20;;;;;;;18.56;48.17;101825.75;5030695;28;20606;-58
2022/01/29 10:41:30;;;;;;;2.93;2.17;;;;;;;18.55;48.35;101824.09;5030434;28;20415;-58
2022/01/29 10:44:16;;;;;;;3.03;1.97;;;;;;;18.57;48.14;101827.44;5029648;28;20408;-58
2022/01/29 10:46:52;;;;;;;3.17;2.20;;;;;;;18.59;48.25;101819.38;5030918;28;20899;-58
2022/01/29 10:49:28;;;;;;;3.87;2.10;;;;;;;18.49;48.76;101822.63;5029985;28;20423;-57
2022/01/29 10:52:08;;;;;;;4.77;2.50;;;;;;;18.56;48.28;101804.94;5029291;28;20969;-58
2022/01/29 10:54:37;;;;;;;3.30;2.53;;;;;;;18.48;48.41;101811.50;5027359;28;20459;-58
2022/01/29 10:57:03;;;;;;;10.27;4.73;;;;;;;17.38;44.69;101816.31;5030616;28;20423;-58
2022/01/29 10:59:30;;;;;;;6.83;4.00;;;;;;;17.39;44.04;101820.88;5026628;28;20514;-60
2022/01/29 11:02:01;;;;;;;6.87;3.97;;;;;;;17.73;43.60;101797.97;5026302;28;20613;-59
2022/01/29 11:04:29;;;;;;;6.20;3.73;;;;;;;18.08;42.76;101790.97;5030125;28;20439;-60
2022/01/29 11:06:55;;;;;;;7.57;3.93;;;;;;;18.21;42.94;101784.19;5030429;28;20435;-60
2022/01/29 11:09:21;;;;;;;10.87;3.90;;;;;;;18.38;43.26;101794.75;5029151;28;20451;-60
2022/01/29 11:11:46;;;;;;;7.73;3.93;;;;;;;18.43;43.63;101800.28;5030330;28;21361;-59
2022/01/29 11:14:13;;;;;;;9.17;4.30;;;;;;;18.51;42.87;101794.50;5026986;28;20168;-59
2022/01/29 11:16:38;;;;;;;13.67;4.30;;;;;;;18.48;43.06;101782.91;5030431;28;20218;-60
2022/01/29 11:19:04;;;;;;;14.43;4.50;;;;;;;18.51;43.64;101790.81;5029672;28;20419;-60
2022/01/29 11:21:29;;;;;;;10.60;4.80;;;;;;;18.52;43.12;101796.16;5028335;28;20175;-59
2022/01/29 11:23:55;;;;;;;10.80;4.30;;;;;;;18.60;42.97;101785.88;5026834;28;20203;-60
2022/01/29 11:26:20;;;;;;;10.33;4.17;;;;;;;18.51;43.74;101783.06;5026931;28;20184;-60
2022/01/29 11:28:46;;;;;;;11.00;3.93;;;;;;;18.50;44.22;101789.13;5028003;28;20258;-61
2022/01/29 11:31:14;;;;;;;10.70;4.53;;;;;;;18.51;44.54;101782.25;5029587;28;20196;-60
2022/01/29 11:33:59;;;;;;;9.93;4.03;;;;;;;18.52;44.27;101773.28;5029844;28;20188;-60
2022/01/29 11:36:46;;;;;;;7.87;3.80;;;;;;;18.49;44.32;101776.88;5025140;28;20525;-60